Flight Track Log - Related Links

Times and Time Zones

All times are in EDT time to prevent confusion due to time zone crossing. See the UAL5900 flight status page for this flight to view local times or setup timezone preferences in your user account.

Time Position Orientation Groundspeed Altitude Reporting Facility
EDT Latitude Longitude Course Direction KTS MPH feet Rate Location/Type
Thu 05:37:15 PM 43.1081 -76.1306 286° West 134 154 1,500  Level Boston Center
Thu 05:37:52 PM 43.1069 -76.1622 267° West 144 166 3,100 2,103 Climbing Boston Center
Thu 05:38:52 PM 43.1114 -76.2367 275° West 208 239 4,900 1,595 Climbing Boston Center
Thu 05:39:11 PM 43.1181 -76.2444 320° Northwest 205 236 5,200 2,100 Climbing Boston Center
Thu 05:40:12 PM 43.1525 -76.3108 305° West 216 249 7,700 2,488 Climbing Boston Center
Thu 05:41:14 PM 43.1903 -76.4022 300° West 228 262 10,300 1,805 Climbing Boston Center
Thu 05:42:00 PM 43.2386 -76.7186 286° West  Level FlightAware Approximate
Thu 05:42:15 PM 43.2097 -76.4967 286° West 255 293 11,400  Level Boston Center
Thu 05:43:16 PM 43.2281 -76.6081 283° West 294 338 12,500 1,180 Climbing Boston Center
Thu 05:44:17 PM 43.2453 -76.7156 282° West 304 350 13,800 1,366 Climbing Boston Center
Thu 05:45:19 PM 43.2650 -76.8322 283° West 313 360 15,300 1,463 Climbing Boston Center
Thu 05:46:20 PM 43.2836 -76.9461 283° West 309 356 16,800 1,475 Climbing Boston Center
Thu 05:47:21 PM 43.3019 -77.0592 283° West 306 352 18,300 1,672 Climbing Boston Center
Thu 05:48:22 PM 43.3247 -77.1939 283° West 305 351 20,200 1,463 Climbing Boston Center
Thu 05:49:24 PM 43.3447 -77.3058 284° West 304 350 21,300 976 Climbing Boston Center
Thu 05:50:25 PM 43.3425 -77.4350 269° West 336 387 22,200 836 Climbing Boston Center
Thu 05:51:26 PM 43.3381 -77.5683 267° West 349 402 23,000 1,079 Climbing Boston Center
Thu 05:52:44 PM 43.3167 -77.7333 260° West 360 414 24,700 1,304 Climbing Toronto Center
Thu 05:53:44 PM 43.3167 -77.8500 270° West 350 403 26,000 1,400 Climbing Toronto Center
Thu 05:54:44 PM 43.3167 -77.9833 270° West 340 391 27,500 1,450 Climbing Toronto Center
Thu 05:55:44 PM 43.3000 -78.1167 260° West 330 380 28,900 1,450 Climbing Toronto Center
Thu 05:56:44 PM 43.3000 -78.2333 270° West 320 368 30,400 1,400 Climbing Toronto Center
Thu 05:57:44 PM 43.2833 -78.3500 259° West 310 357 31,700 1,150 Climbing Toronto Center
Thu 05:58:44 PM 43.2833 -78.4833 270° West 310 357 32,700 750 Climbing Toronto Center
Thu 05:59:44 PM 43.3000 -78.6000 281° West 320 368 33,200 550 Climbing Toronto Center
Thu 06:00:44 PM 43.2833 -78.7167 259° West 340 391 33,800 600 Climbing Toronto Center
Thu 06:01:44 PM 43.2833 -78.8833 270° West 350 403 34,400 550 Climbing Toronto Center
Thu 06:02:44 PM 43.2667 -79.0000 259° West 360 414 34,900 550 Climbing Toronto Center
Thu 06:03:44 PM 43.2667 -79.1500 270° West 370 426 35,500 550 Climbing Toronto Center
Thu 06:04:44 PM 43.2667 -79.2833 270° West 380 437 36,000 250 Climbing Toronto Center
Thu 06:05:44 PM 43.2500 -79.4500 262° West 390 449 36,000  Level Toronto Center
Thu 06:06:44 PM 43.2500 -79.5833 270° West 400 460 36,000  Level Toronto Center
Thu 06:07:44 PM 43.2333 -79.7500 262° West 420 483 36,000  Level Toronto Center
Thu 06:08:44 PM 43.2333 -79.9000 270° West 410 472 36,000  Level Toronto Center
Thu 06:09:44 PM 43.2167 -80.0667 262° West 410 472 36,000  Level Toronto Center
Thu 06:10:44 PM 43.2167 -80.2000 270° West 400 460 36,000  Level Toronto Center
Thu 06:11:44 PM 43.2000 -80.3667 262° West 400 460 36,000  Level Toronto Center
Thu 06:12:44 PM 43.2000 -80.5167 270° West 390 449 36,000  Level Toronto Center
Thu 06:13:44 PM 43.1833 -80.6667 261° West 390 449 36,000  Level Toronto Center
Thu 06:14:44 PM 43.1667 -80.8167 261° West 380 437 36,000  Level Toronto Center
Thu 06:15:44 PM 43.1500 -80.9667 261° West 380 437 36,000  Level Toronto Center
Thu 06:16:44 PM 43.1500 -81.1000 270° West 380 437 36,000  Level Toronto Center
Thu 06:17:44 PM 43.1333 -81.2333 260° West 380 437 36,000  Level Toronto Center
Thu 06:18:44 PM 43.1333 -81.4000 270° West 380 437 36,000  Level Toronto Center
Thu 06:19:44 PM 43.1333 -81.5333 270° West 370 426 36,000  Level Toronto Center
Thu 06:20:44 PM 43.1167 -81.6667 260° West 370 426 36,000  Level Toronto Center
Thu 06:21:44 PM 43.1167 -81.8000 270° West 370 426 36,000  Level Toronto Center
Thu 06:22:44 PM 43.0833 -81.9667 255° West 370 426 36,000  Level Toronto Center
Thu 06:23:44 PM 43.0833 -82.1000 270° West 370 426 36,000  Level Toronto Center
Thu 06:24:44 PM 43.0667 -82.2333 260° West 370 426 36,000  Level Toronto Center
Thu 06:25:44 PM 43.0667 -82.3667 270° West 380 437 36,000  Level Toronto Center
Thu 06:26:44 PM 43.0667 -82.5167 270° West 380 437 36,000  Level Toronto Center
Thu 06:27:44 PM 43.0333 -82.6667 253° West 380 437 36,000  Level Toronto Center
Thu 06:28:29 PM 43.0472 -82.7825 279° West 379 436 36,000  Level Cleveland Center
Thu 06:29:32 PM 43.0356 -82.9267 264° West 381 438 36,000  Level Cleveland Center
Thu 06:30:34 PM 43.0244 -83.0711 264° West 384 442 36,000  Level Cleveland Center
Thu 06:31:36 PM 43.0111 -83.2161 263° West 385 443 36,000  Level Cleveland Center
Thu 06:32:38 PM 43.0000 -83.3633 264° West 390 449 36,000  Level Cleveland Center
Thu 06:33:40 PM 42.9842 -83.5389 263° West 390 449 36,000  Level Cleveland Center
Thu 06:34:42 PM 42.9722 -83.6853 264° West 391 450 36,000  Level Cleveland Center
Thu 06:35:44 PM 42.9597 -83.8322 263° West 391 450 36,000  Level Cleveland Center
Thu 06:36:46 PM 42.9444 -83.9764 262° West 391 450 36,000 -97 Level Cleveland Center
Thu 06:37:48 PM 42.9317 -84.1192 263° West 386 444 35,800 -726 Descending Cleveland Center
Thu 06:38:50 PM 42.9147 -84.2800 262° West 361 415 34,500 -1,122 Descending Cleveland Center
Thu 06:39:51 PM 42.9031 -84.4022 263° West 343 395 33,500 -1,024 Descending Chicago Center
Thu 06:40:53 PM 42.8889 -84.5336 262° West 350 403 32,400 -726 Descending Chicago Center
Thu 06:41:55 PM 42.8744 -84.6697 262° West 363 418 32,000 -194 Descending Chicago Center
Thu 06:42:57 PM 42.8611 -84.8069 262° West 366 421 32,000  Level Chicago Center
Thu 06:44:00 PM 42.8467 -84.9428 262° West 363 418 32,000  Level Chicago Center
Thu 06:45:02 PM 42.8294 -85.1047 262° West 362 417 32,000  Level Chicago Center
Thu 06:46:04 PM 42.8150 -85.2406 262° West 363 418 32,000  Level Chicago Center
Thu 06:47:06 PM 42.8003 -85.3769 262° West 364 419 32,000 -581 Level Chicago Center
Thu 06:48:08 PM 42.7836 -85.5156 261° West 370 426 30,800 -1,548 Descending Chicago Center
Thu 06:49:10 PM 42.7594 -85.6475 256° West 361 415 28,800 -1,984 Descending Chicago Center
Thu 06:50:12 PM 42.7353 -85.7875 257° West 372 428 26,700 -2,032 Descending Chicago Center
Thu 06:51:14 PM 42.7075 -85.9358 256° West 395 455 24,600 -2,274 Descending Chicago Center
Thu 06:52:16 PM 42.6756 -86.1103 256° West 395 455 22,000 -2,177 Descending Chicago Center
Thu 06:53:18 PM 42.6506 -86.2489 256° West 376 433 20,100 -960 Descending Chicago Center
Thu 06:54:21 PM 42.6250 -86.3767 255° West 359 413 20,000 -48 Descending Chicago Center
Thu 06:55:23 PM 42.6006 -86.5153 257° West 373 429 20,000 -1,016 Level Chicago Center
Thu 06:56:25 PM 42.5744 -86.6447 255° West 359 413 17,900 -2,226 Descending Chicago Center
Thu 06:57:27 PM 42.5500 -86.7703 255° West 347 399 15,400 -2,710 Descending Chicago Center
Thu 06:58:29 PM 42.5100 -86.9125 249° West 338 389 12,300 -2,419 Descending Chicago Center
Thu 06:59:31 PM 42.4808 -87.0219 250° West 314 361 10,400 -1,306 Descending Chicago Center
Thu 07:00:33 PM 42.4550 -87.1128 249° West 262 302 9,600 -677 Descending Chicago Center
Thu 07:01:35 PM 42.4292 -87.1978 248° West 247 284 9,000 -290 Descending Chicago Center
Thu 07:02:37 PM 42.3539 -87.2142 189° South 292 336 9,000 -480 Level Chicago Center
Thu 07:03:40 PM 42.2586 -87.2139 180° South 293 337 8,000 -960 Descending Chicago Center
Thu 07:04:42 PM 42.1736 -87.2117 179° South 286 329 7,000 -484 Descending Chicago Center
Thu 07:05:44 PM 42.0953 -87.2114 180° South 283 326 7,000  Level Chicago Center
Thu 07:06:46 PM 42.0150 -87.2103 179° South 288 331 7,000  Level Chicago Center
Thu 07:07:48 PM 41.9781 -87.2911 238° Southwest 231 266 7,000  Level Chicago Center
Thu 07:08:50 PM 41.9836 -87.3622 276° West 192 221 7,000  Level Chicago Center
Thu 07:09:52 PM 41.9814 -87.4417 268° West 198 228 7,000 -194 Level Chicago Center
Thu 07:10:54 PM 41.9831 -87.5050 272° West 170 196 6,600 -726 Descending Chicago Center
Thu 07:11:56 PM 41.9828 -87.5728 270° West 169 194 5,500 -1,008 Descending Chicago Center
Thu 07:12:53 PM 41.9833 -87.6333 271° West 163 188 4,600 -878 Descending Chicago TRACON
Thu 07:13:59 PM 41.9833 -87.7000 270° West 158 182 3,700 -900 Descending Chicago TRACON
Thu 07:14:53 PM 41.9833 -87.7500 270° West 161 185 2,800 -947 Descending Chicago TRACON
Thu 07:15:53 PM 41.9833 -87.8000 270° West 156 180 1,900 -793 Descending Chicago TRACON
Thu 07:16:54 PM 41.9833 -87.8500 270° West 127 146 1,200 -689 Descending Chicago TRACON

Login

Don't have an account? Register now (free) for customized features, flight alerts, and more!